Resolve — WDD7117 — position and weather

sailwx.info

Track history (hours):
 
Tides and Currents Weather Stations Pressure Air Temp Water Temp Dewpoint Dewpoint Depression Visibility Wind Speed Wind Dir Waves Ship Positions

Resolve

Owner: Intrepid Ship Management, jacksonville, FL. More information available from US FCC via Universal Licensing System and Coast Guard Vessel Documentation Center.

Last reported at 2017-Nov-20 00:29 UTC. Time now 2017-Nov-20 20:58 UTC.
Position N 27°02' W 079°56'.

Length 209 m; draft 9 m.

Type: Towing. MMSI: 367336000.

Date/timePositionNaut miles runAvg speedWind from/ knotsBaromVisibWave heightAir tempDewpointWater temp
2017-Nov-20 00:29N 27°02' W 079°56'612.0
2017-Nov-19 23:58N 26°56' W 079°56'511.7
2017-Nov-19 23:30N 26°50' W 079°55'612.1
2017-Nov-19 22:58N 26°44' W 079°55'511.4
2017-Nov-19 22:30N 26°39' W 079°55'611.3
2017-Nov-19 22:00N 26°33' W 079°55'611.0
2017-Nov-19 21:29N 26°27' W 079°56'611.4
2017-Nov-19 21:00N 26°22' W 079°56'611.4
2017-Nov-19 20:30N 26°16' W 079°56'611.2
2017-Nov-19 20:00N 26°11' W 079°56'511.0
2017-Nov-19 19:30N 26°05' W 079°57'611.9
2017-Nov-19 19:00N 25°59' W 079°58'611.4
2017-Nov-19 18:30N 25°54' W 079°58'611.3
2017-Nov-19 18:00N 25°48' W 079°58'611.7
2017-Nov-19 17:30N 25°42' W 079°59'611.4
2017-Nov-19 17:00N 25°36' W 079°59'611.2
2017-Nov-19 16:30N 25°31' W 079°60'511.0
2017-Nov-19 16:00N 25°25' W 079°60'  
2017-Nov-15 15:37N 29°21' W 094°47'211.5
2017-Nov-15 15:27N 29°22' W 094°49'3 0.1
2017-Nov-14 03:45N 29°23' W 094°52'  
2017-Nov-10 20:14N 25°19' W 080°03'2 8.7
2017-Nov-10 19:57N 25°21' W 080°02'4 9.7
2017-Nov-10 19:30N 25°26' W 080°02'510.0
2017-Nov-10 19:00N 25°31' W 080°02'5 9.8
2017-Nov-10 18:30N 25°36' W 080°01'510.1
2017-Nov-10 18:00N 25°41' W 080°01'510.6
2017-Nov-10 17:30N 25°46' W 080°01'510.2
2017-Nov-10 17:00N 25°51' W 080°00'510.1
2017-Nov-10 16:30N 25°56' W 079°60'510.1
2017-Nov-10 16:00N 26°01' W 079°59'5 9.8
2017-Nov-10 15:31N 26°06' W 079°59'5 9.6
2017-Nov-10 15:00N 26°11' W 079°59'510.1
2017-Nov-10 14:30N 26°16' W 079°59'510.4
2017-Nov-10 14:00N 26°21' W 079°58'510.3
2017-Nov-10 13:30N 26°26' W 079°58'510.5
2017-Nov-10 13:00N 26°31' W 079°58'510.0
2017-Nov-10 12:30N 26°36' W 079°58'510.1
2017-Nov-10 12:00N 26°41' W 079°57'510.2
2017-Nov-10 11:28N 26°47' W 079°57'510.3
2017-Nov-10 11:00N 26°52' W 079°57'611.1
2017-Nov-10 10:30N 26°57' W 079°58'611.9
2017-Nov-10 10:00N 27°03' W 079°59'  
Track history (hours):
 
Tides and Currents Weather Stations Pressure Air Temp Water Temp Dewpoint Dewpoint Depression Visibility Wind Speed Wind Dir Waves Ship Positions

Resolve

Owner: Intrepid Ship Management, jacksonville, FL. More information available from US FCC via Universal Licensing System and Coast Guard Vessel Documentation Center.

Last reported at 2017-Nov-20 00:29 UTC. Time now 2017-Nov-20 20:58 UTC.
Position N 27°02' W 079°56'.

Length 209 m; draft 9 m.

Type: Towing. MMSI: 367336000.

Date/timePositionNaut miles runAvg speedWind from/ knotsBaromVisibWave heightAir tempDewpointWater temp
2017-Nov-20 00:29N 27°02' W 079°56'612.0
2017-Nov-19 23:58N 26°56' W 079°56'511.7
2017-Nov-19 23:30N 26°50' W 079°55'612.1
2017-Nov-19 22:58N 26°44' W 079°55'511.4
2017-Nov-19 22:30N 26°39' W 079°55'611.3
2017-Nov-19 22:00N 26°33' W 079°55'611.0
2017-Nov-19 21:29N 26°27' W 079°56'611.4
2017-Nov-19 21:00N 26°22' W 079°56'611.4
2017-Nov-19 20:30N 26°16' W 079°56'611.2
2017-Nov-19 20:00N 26°11' W 079°56'511.0
2017-Nov-19 19:30N 26°05' W 079°57'611.9
2017-Nov-19 19:00N 25°59' W 079°58'611.4
2017-Nov-19 18:30N 25°54' W 079°58'611.3
2017-Nov-19 18:00N 25°48' W 079°58'611.7
2017-Nov-19 17:30N 25°42' W 079°59'611.4
2017-Nov-19 17:00N 25°36' W 079°59'611.2
2017-Nov-19 16:30N 25°31' W 079°60'511.0
2017-Nov-19 16:00N 25°25' W 079°60'  
2017-Nov-15 15:37N 29°21' W 094°47'211.5
2017-Nov-15 15:27N 29°22' W 094°49'3 0.1
2017-Nov-14 03:45N 29°23' W 094°52'  
2017-Nov-10 20:14N 25°19' W 080°03'2 8.7
2017-Nov-10 19:57N 25°21' W 080°02'4 9.7
2017-Nov-10 19:30N 25°26' W 080°02'510.0
2017-Nov-10 19:00N 25°31' W 080°02'5 9.8
2017-Nov-10 18:30N 25°36' W 080°01'510.1
2017-Nov-10 18:00N 25°41' W 080°01'510.6
2017-Nov-10 17:30N 25°46' W 080°01'510.2
2017-Nov-10 17:00N 25°51' W 080°00'510.1
2017-Nov-10 16:30N 25°56' W 079°60'510.1
2017-Nov-10 16:00N 26°01' W 079°59'5 9.8
2017-Nov-10 15:31N 26°06' W 079°59'5 9.6
2017-Nov-10 15:00N 26°11' W 079°59'510.1
2017-Nov-10 14:30N 26°16' W 079°59'510.4
2017-Nov-10 14:00N 26°21' W 079°58'510.3
2017-Nov-10 13:30N 26°26' W 079°58'510.5
2017-Nov-10 13:00N 26°31' W 079°58'510.0
2017-Nov-10 12:30N 26°36' W 079°58'510.1
2017-Nov-10 12:00N 26°41' W 079°57'510.2
2017-Nov-10 11:28N 26°47' W 079°57'510.3
2017-Nov-10 11:00N 26°52' W 079°57'611.1
2017-Nov-10 10:30N 26°57' W 079°58'611.9
2017-Nov-10 10:00N 27°03' W 079°59'  

Dump ship's entire track history